ADDS METAR Data INFO
IDs: Format: Raw Decoded Include TAF

Data at: 1133 UTC 29 May 2017

KMFE 291121Z 09011G21KT 10SM VCTS -RA CLR 23/20 A2985 RMK AO2 LTG DSNT ALQDS TSB1055E15 P0002 T02280200
KMFE 291101Z 02017G24KT 10SM -TSRA FEW090 FEW110 22/20 A2986 RMK AO2 LTG DSNT N-E TSB1055 P0001 T02220200
KMFE 291053Z 01019G23KT 10SM -RA FEW090 SCT110 23/21 A2987 RMK AO2 LTG DSNT ALQDS TSE05B22E52 PRESFR SLP113 P0010 T02280206
KMFE 291028Z AUTO 02014KT 8SM TSRA SCT110 22/20 A2991 RMK AO2 LTG DSNT NE-SE TSE05B22 P0007 T02220200
KMFE 291011Z AUTO 01011KT 7SM VCTS RA BKN110 23/21 A2992 RMK AO2 LTG DSNT ALQDS TSE05 P0004 T02280206
KMFE 290953Z AUTO 01009KT 9SM -TSRA BKN110 22/21 A2994 RMK AO2 LTG DSNT ALQDS TSE0857B23E38B41 SLP136 P0007 T02220206
KMFE 290929Z AUTO 01005KT 8SM -TSRA FEW090 BKN110 22/21 A2994 RMK AO2 LTG DSNT ALQDS TSE0857B23 P0004 T02220206
KMFE 290903Z AUTO 30004KT 4SM VCTS RA BR SCT050 BKN075 OVC110 22/21 A2997 RMK AO2 LTG DSNT ALQDS TSE0857 P0002 T02170206
KMFE 290853Z AUTO 29007KT 3SM TSRA BR SCT055 BKN070 OVC090 22/20 A2997 RMK AO2 LTG DSNT ALQDS SLP146 P0029 60049 T02170200 51018
KMFE 290844Z AUTO 28007KT 1 1/2SM +TSRA BR BKN055 OVC070 22/20 A2998 RMK AO2 LTG DSNT ALQDS P0026 T02220200
KMFE 290837Z AUTO 27003KT 2SM +TSRA BR BKN060 OVC075 22/20 A2999 RMK AO2 LTG DSNT ALQDS P0020 T02220200
KMFE 290753Z AUTO 35008G16KT 5SM -TSRA BR FEW011 BKN034 OVC045 22/21 A2995 RMK AO2 LTG DSNT ALQDS RAB20 TSB23 SLP140 P0020 T02220206
KMFE 290750Z AUTO 36012G22KT 4SM +TSRA BR FEW011 BKN034 OVC043 22/21 A2995 RMK AO2 LTG DSNT ALQDS RAB20 TSB23 P0020
KMFE 290742Z AUTO 34014G22KT 2 1/2SM +TSRA BR FEW014 SCT022 OVC032 22/20 A2995 RMK AO2 VIS 1 3/4V4 LTG DSNT W-NE RAB20 TSB23 P0016 T02220200
KMFE 290733Z AUTO 34013G22KT 5SM TSRA SCT014 BKN022 OVC030 23/20 A2995 RMK AO2 LTG DSNT ALQDS RAB20 TSB23 P0006 T02330200
KMFE 290723Z AUTO 34019G25KT 10SM -TSRA BKN014 OVC022 25/20 A2995 RMK AO2 LTG DSNT ALQDS RAB20 TSB23 PRESRR P0000 T02500200
KMFE 290653Z AUTO VRB03KT 6SM HZ BKN014 OVC026 29/26 A2992 RMK AO2 LTG DSNT W-NE PRESRR SLP127 T02890256
KMFE 290553Z AUTO 11010KT 6SM HZ BKN016 OVC022 29/25 A2988 RMK AO2 LTG DSNT NW SLP114 T02890250 10328 20289 403830272 50019
KMFE 290453Z 12010KT 7SM BKN017 OVC023 29/25 A2988 RMK AO2 SLP115 T02890250
KMFE 290353Z 12012KT 7SM BKN018 OVC024 29/25 A2985 RMK AO2 SLP107 T02940250
KMFE 290253Z 11013KT 7SM OVC021 29/25 A2982 RMK AO2 SLP097 T02940250 53024
KMFE 290153Z 12018KT 8SM BKN023 OVC028 30/24 A2977 RMK AO2 SLP078 T03000244
KMFE 290100Z 12014KT 7SM BKN024 BKN029 31/24 A2978 RMK AO2 T03110244
KMFE 290053Z 11017G23KT 7SM SCT025 BKN030 31/24 A2978 RMK AO2 PK WND 13027/2354 PRESRR SLP081 T03110244
KMFE 282353Z 13019G27KT 9SM CLR 33/24 A2975 RMK AO2 PK WND 11027/2348 SLP072 T03280244 10383 20328 56012
KMFE 282253Z 13019G25KT 10SM CLR 35/24 A2977 RMK AO2 PK WND 12027/2239 SLP077 T03500239
KMFE 282153Z 12023G27KT 10SM CLR 36/24 A2977 RMK AO2 PK WND 14027/2144 SLP078 T03560239
KMFE 282053Z 12017G25KT 10SM CLR 36/24 A2979 RMK AO2 PK WND 12026/2002 SLP085 T03610244 58007
KMFE 281953Z 12018KT 10SM FEW041 37/24 A2980 RMK AO2 SLP088 T03720244
KMFE 281853Z 12015G27KT 10SM FEW040 37/24 A2980 RMK AO2 PK WND 13029/1833 SLP088 T03720244
KMFE 281753Z 15017G24KT 10SM CLR 37/24 A2981 RMK AO2 PK WND 13028/1711 SLP091 T03720239 10378 20272 58003
KMFE 281653Z 15016G23KT 10SM CLR 36/24 A2982 RMK AO2 SLP096 T03610239
KMFE 281626Z 13015G22KT 10SM FEW036 35/24 A2982 RMK AO2 T03500239
KMFE 281553Z 17013KT 10SM CLR 34/24 A2983 RMK AO2 SLP098 T03390239
KMFE 281453Z 15015G22KT 9SM FEW025 32/24 A2982 RMK AO2 SLP095 T03220244 53010
KMFE 281412Z 16014G20KT 7SM SCT016 30/25 A2982 RMK AO2 T03000250
KMFE 281353Z 16013G21KT 6SM HZ BKN013 29/25 A2981 RMK AO2 SLP093 T02940250
KMFE 281335Z 16015G23KT 6SM HZ BKN013 29/25 A2980 RMK AO2 T02890250
KMFE 281253Z 16015G22KT 6SM HZ CLR 28/25 A2979 RMK AO2 SLP085 T02830250
KMFE 281153Z 15014KT 5SM BR CLR 27/25 A2979 RMK AO2 SLP085 T02720250 10283 20272 56008
KMFE 281053Z 15013G19KT 6SM BR CLR 27/25 A2979 RMK AO2 SLP084 T02720250
KMFE 281027Z AUTO 16011G19KT 6SM HZ FEW011 FEW016 28/25 A2979 RMK AO2 T02780250
KMFE 280953Z AUTO 15012KT 6SM HZ OVC014 28/25 A2979 RMK AO2 SLP086 T02780250
KMFE 280853Z AUTO 15011KT 7SM OVC013 28/25 A2981 RMK AO2 SLP092 T02780250 58019
KMFE 280828Z AUTO 15010KT 7SM OVC015 28/25 A2982 RMK AO2 T02780250
KMFE 280753Z AUTO 16010KT 8SM OVC012 28/25 A2983 RMK AO2 SLP098 T02780250
KMFE 280653Z AUTO 15010KT 8SM OVC014 28/25 A2985 RMK AO2 SLP106 T02780250
KMFE 280614Z AUTO 15011KT 8SM OVC014 28/25 A2987 RMK AO2 T02830250
KMFE 280553Z AUTO 14011KT 8SM OVC015 28/25 A2987 RMK AO2 SLP112 T02780250 10344 20278 404000278 51009
KMFE 280519Z AUTO 15012KT 9SM OVC015 28/25 A2987 RMK AO2 T02830250
KMFE 280453Z 14013KT 9SM BKN014 28/25 A2987 RMK AO2 SLP112 T02830250
KMFE 280353Z 14011KT 10SM BKN016 28/25 A2986 RMK AO2 SLP109 T02830250
KMFE 280253Z 14014KT 10SM CLR 29/24 A2984 RMK AO2 PK WND 14026/0236 SLP103 T02890244 53020
KMFE 280153Z 14019G25KT 10SM CLR 31/24 A2982 RMK AO2 SLP094 T03060239
KMFE 280053Z 12019G23KT 10SM CLR 32/23 A2979 RMK AO2 SLP085 T03220228
KMFE 272353Z 14017G23KT 10SM CLR 35/22 A2978 RMK AO2 SLP083 T03500222 10400 20350 55002


Page loaded:  11:33 UTC  |   04:33 AM Pacific  |   05:33 AM Mountain  |   06:33 AM Central  |   07:33 AM Eastern

 

ADVISORIES

FORECASTS

FORECASTS

OBSERVATIONS

USER TOOLS

ABOUT US